Hlavní strana
METAR-TAF:

METAR-TAF

Letiště :

Batna, Alžírsko

zeměpisná šířka: 35-33N, zeměpisná délka: 006-11E, výška: 1052 m

Aktuální stav počasí

Zpráva byla vytvořena před 20 minutami, v 23:00 UTC
Severoseverovýchodní vítr 3 kt
Teplota 6°C
Vlhkost vzduchu 52%
Tlak 1032 hPa
Viditelnost 10 km a více
Žádná oblačnost pod 1500 m, nevyskytují se cumulonimby.

METAR: DABT 242300Z 02003KT CAVOK 06/M03 Q1032

Čas: 00:20 (23:20 UTC)

Předpověď počasí

Zpráva byla vytvořena před 6 hodinami a 20 minutami, v 17:00 UTC
Předpověď platná od 24 v 18 UTC do 25 v 18 UTC
Jižní vítr 8 kt
Viditelnost 10 km a více
Skoro jasno ve výšce 3000 ft
Polojasno ve výšce 10000 ft

TAF: DABT 241700Z 2418/2518 17008KT 9999 FEW030 SCT100

Stav a předpovědi počasí z více než 4 000 letišť (zprávy METAR a TAF).

Červené a žluté tečky na mapě představují dostupné meteorologické stanice.

Když kurzor umístíte na tečku, zobrazí se název stanice.

Pak kliknutím zobrazíte stav a předpověď počasí.

Chcete-li změnit mapu, kliknutím na zelené tlačítko se znaménkem +mapu přiblížíte, kliknutím na zelené tlačítko se znaménkem – mapu oddálíte a kliknutím na zelené šipky přejdete na sousední mapy.


METAR-TAF: